Time;durP1;ratioP1;P1;durP2;ratioP2;P2;SDS_P1;SDS_P2;PMS_P1;PMS_P2;Temp;Humidity;BMP_temperature;BMP_pressure;BME280_temperature;BME280_humidity;BME280_pressure;Samples;Min_cycle;Max_cycle;Signal;HPM_P1;HPM_P2
2022/08/02 00:01:53;;;;;;;;;3.00;3.00;;;;;25.11;48.22;101452.03;5018971;28;58379;-65
2022/08/02 00:04:18;;;;;;;;;1.50;1.50;;;;;25.08;47.96;101448.69;5019809;28;45238;-65
2022/08/02 00:06:43;;;;;;;;;4.00;3.00;;;;;25.07;47.66;101450.53;5019719;28;45372;-65
2022/08/02 00:09:09;;;;;;;;;4.00;4.00;;;;;25.03;48.13;101449.06;5019787;28;45444;-65
2022/08/02 00:11:34;;;;;;;;;2.50;2.00;;;;;24.96;48.05;101445.97;5019153;28;46303;-65
2022/08/02 00:13:59;;;;;;;;;3.00;2.50;;;;;24.93;47.82;101450.81;5019608;28;45293;-65
2022/08/02 00:16:25;;;;;;;;;1.75;1.75;;;;;24.91;48.52;101458.28;5019579;28;45319;-65
2022/08/02 00:18:50;;;;;;;;;2.00;2.00;;;;;24.91;47.81;101453.66;5019527;28;45466;-65
2022/08/02 00:21:15;;;;;;;;;3.00;3.00;;;;;24.91;47.79;101459.13;5017346;28;45720;-65
2022/08/02 00:23:41;;;;;;;;;2.00;2.00;;;;;24.86;47.97;101452.28;5019309;28;45347;-65
2022/08/02 00:26:06;;;;;;;;;4.00;3.00;;;;;24.86;48.15;101449.56;5019417;28;45455;-65
2022/08/02 00:28:32;;;;;;;;;1.75;1.75;;;;;24.83;48.01;101447.09;5022518;28;45366;-65
2022/08/02 00:30:57;;;;;;;;;2.00;2.00;;;;;24.80;48.21;101450.94;5022858;28;45471;-65
2022/08/02 00:33:24;;;;;;;;;2.50;2.50;;;;;24.77;48.20;101438.44;5022787;28;45347;-65
2022/08/02 00:35:50;;;;;;;;;3.00;2.00;;;;;24.75;48.28;101436.78;5022927;28;45280;-65
2022/08/02 00:38:15;;;;;;;;;1.25;1.25;;;;;24.73;48.63;101442.38;5022593;28;51101;-65
2022/08/02 00:40:46;;;;;;;;;2.00;2.00;;;;;24.71;48.88;101438.06;5022612;28;45261;-65
2022/08/02 00:43:11;;;;;;;;;4.00;4.00;;;;;24.71;48.65;101438.06;5022407;28;45450;-65
2022/08/02 00:45:39;;;;;;;;;2.00;2.00;;;;;24.64;48.91;101432.22;5022883;28;45407;-65
2022/08/02 00:48:06;;;;;;;;;2.75;2.75;;;;;24.67;48.54;101447.47;5022909;28;45246;-65
2022/08/02 00:50:32;;;;;;;;;3.00;3.00;;;;;24.66;48.82;101445.72;5021382;28;45427;-65
2022/08/02 00:52:58;;;;;;;;;2.50;2.50;;;;;24.66;48.81;101443.88;5022327;28;45224;-65
2022/08/02 00:55:24;;;;;;;;;3.00;3.00;;;;;24.65;48.77;101447.59;5021851;28;45260;-65
2022/08/02 00:57:49;;;;;;;;;2.25;2.25;;;;;24.60;48.04;101447.09;5022165;28;45304;-65
2022/08/02 01:00:15;;;;;;;;;5.00;5.00;;;;;24.64;48.70;101445.88;5022203;28;48051;-65
2022/08/02 01:02:41;;;;;;;;;3.50;3.50;;;;;24.63;48.26;101449.59;5022327;28;45339;-65
2022/08/02 01:05:07;;;;;;;;;4.75;4.75;;;;;24.58;48.24;101447.22;5022434;28;45434;-65
2022/08/02 01:07:33;;;;;;;;;5.00;4.00;;;;;24.54;48.40;101451.16;5022366;28;45313;-65
2022/08/02 01:09:59;;;;;;;;;3.25;3.25;;;;;24.53;48.62;101446.69;5022129;28;45945;-65
2022/08/02 01:12:25;;;;;;;;;6.25;4.00;;;;;24.52;48.47;101449.53;5022020;28;45389;-65
2022/08/02 01:14:54;;;;;;;;;3.75;3.00;;;;;24.48;48.49;101450.78;5022288;28;45275;-65
2022/08/02 01:17:51;;;;;;;;;3.00;3.00;;;;;24.47;48.80;101455.38;5022297;28;45253;-65
2022/08/02 01:21:01;;;;;;;;;5.00;4.00;;;;;24.45;48.49;101456.50;5020045;28;45486;-65
2022/08/02 01:23:45;;;;;;;;;5.00;2.00;;;;;24.44;48.72;101452.91;5010021;28;45250;-65
2022/08/02 01:26:25;;;;;;;;;1.50;1.50;;;;;24.42;49.17;101455.75;5022008;28;45415;-65
2022/08/02 01:29:06;;;;;;;;;2.50;2.50;;;;;24.40;48.68;101448.66;5022090;28;45232;-65
2022/08/02 01:31:36;;;;;;;;;2.00;2.00;;;;;24.38;48.70;101459.69;5021825;28;46138;-65
2022/08/02 01:34:07;;;;;;;;;2.00;2.00;;;;;24.39;48.62;101456.00;5021864;28;45554;-65
2022/08/02 01:36:40;;;;;;;;;3.50;3.50;;;;;24.34;49.18;101458.22;5022327;28;45162;-65
2022/08/02 01:39:10;;;;;;;;;4.00;2.50;;;;;24.35;48.73;101457.22;5021329;28;45269;-65
2022/08/02 01:41:37;;;;;;;;;2.50;2.50;;;;;24.34;48.65;101451.88;5021467;28;47176;-65
2022/08/02 01:44:04;;;;;;;;;1.25;1.25;;;;;24.30;48.93;101456.72;5021677;28;45494;-65
2022/08/02 01:46:31;;;;;;;;;3.25;3.00;;;;;24.29;49.15;101462.28;5021852;28;45296;-65
2022/08/02 01:49:00;;;;;;;;;1.75;1.75;;;;;24.24;49.04;101457.22;5020683;28;45562;-65
2022/08/02 01:54:16;;;;;;;;;3.75;3.75;;;;;24.22;49.12;101464.63;5021487;28;45481;-65
2022/08/02 01:56:43;;;;;;;;;1.00;1.00;;;;;24.21;49.40;101462.91;5020190;28;45289;-65
2022/08/02 01:59:12;;;;;;;;;1.00;1.00;;;;;24.15;49.39;101460.66;5021961;28;45478;-65
2022/08/02 02:01:39;;;;;;;;;2.25;2.25;;;;;24.14;49.37;101461.63;5021243;28;45323;-65
2022/08/02 02:04:07;;;;;;;;;1.25;1.25;;;;;24.12;49.27;101458.16;5021502;28;45448;-65
2022/08/02 02:06:34;;;;;;;;;3.00;2.00;;;;;24.09;49.46;101448.38;5021478;28;45426;-65
2022/08/02 02:09:01;;;;;;;;;3.00;3.00;;;;;24.12;49.44;101456.28;5021843;28;45357;-65
2022/08/02 02:11:26;;;;;;;;;4.50;2.25;;;;;24.10;49.27;101447.38;5020938;28;46397;-65
2022/08/02 02:13:52;;;;;;;;;2.00;2.00;;;;;24.05;49.43;101449.59;5021174;28;45383;-65
2022/08/02 02:16:20;;;;;;;;;1.00;1.00;;;;;24.07;49.26;101449.47;5021408;28;45317;-65
2022/08/02 02:18:47;;;;;;;;;2.00;2.00;;;;;24.04;49.22;101451.47;5020259;28;45349;-65
2022/08/02 02:21:13;;;;;;;;;2.25;2.25;;;;;23.99;49.35;101442.78;5018712;28;46355;-65
2022/08/02 02:23:39;;;;;;;;;1.00;1.00;;;;;23.99;49.14;101442.78;5021174;28;45341;-65
2022/08/02 02:26:04;;;;;;;;;2.25;1.25;;;;;24.01;49.08;101439.94;5021215;28;45334;-65
2022/08/02 02:28:31;;;;;;;;;2.00;2.00;;;;;24.03;49.31;101435.22;5020866;28;45483;-65
2022/08/02 02:31:05;;;;;;;;;2.25;2.25;;;;;24.03;49.56;101436.06;5021063;28;45291;-65
2022/08/02 02:33:32;;;;;;;;;2.00;2.00;;;;;24.03;49.71;101430.63;5021070;28;45453;-65
2022/08/02 02:35:59;;;;;;;;;2.00;2.00;;;;;24.04;49.35;101440.56;5020916;28;45285;-65
2022/08/02 02:38:29;;;;;;;;;2.00;1.75;;;;;24.03;49.17;101441.53;5021092;28;45269;-65
2022/08/02 02:40:59;;;;;;;;;2.25;2.00;;;;;24.00;49.40;101432.72;5020674;28;47269;-65
2022/08/02 02:43:27;;;;;;;;;1.50;0.75;;;;;24.01;49.58;101435.34;5020565;28;45358;-65
2022/08/02 02:45:54;;;;;;;;;2.00;2.00;;;;;23.98;49.30;101432.00;5020770;28;45258;-65
2022/08/02 02:48:20;;;;;;;;;1.25;1.25;;;;;23.96;49.29;101434.81;5019687;28;45312;-65
2022/08/02 02:50:46;;;;;;;;;1.50;1.50;;;;;23.91;49.19;101428.88;5019759;28;45453;-65
2022/08/02 02:53:12;;;;;;;;;3.25;3.25;;;;;23.93;49.03;101426.88;5020404;28;45493;-65
2022/08/02 02:55:39;;;;;;;;;1.50;1.50;;;;;23.89;49.68;101433.59;5020458;28;45332;-65
2022/08/02 02:58:05;;;;;;;;;3.00;2.00;;;;;23.89;49.47;101430.84;5019055;28;45289;-65
2022/08/02 03:03:16;;;;;;;;;1.00;1.00;;;;;23.88;49.29;101428.25;5019833;28;45325;-65
2022/08/02 03:05:41;;;;;;;;;1.75;1.75;;;;;23.88;49.60;101425.53;5020495;28;45226;-65
2022/08/02 03:08:07;;;;;;;;;2.25;2.25;;;;;23.86;49.32;101425.63;5019919;28;45467;-65
2022/08/02 03:10:33;;;;;;;;;2.75;2.00;;;;;23.80;49.20;101415.16;5019694;28;45325;-65
2022/08/02 03:12:59;;;;;;;;;3.00;2.00;;;;;23.80;49.38;101420.63;5019763;28;45375;-65
2022/08/02 03:15:27;;;;;;;;;3.00;3.00;;;;;23.77;49.41;101423.56;5020072;28;45328;-65
2022/08/02 03:17:53;;;;;;;;;4.75;3.00;;;;;23.75;49.46;101425.56;5020330;28;45404;-65
2022/08/02 03:20:21;;;;;;;;;3.00;1.75;;;;;23.76;49.44;101425.44;5018414;28;45292;-65
2022/08/02 03:22:47;;;;;;;;;4.75;2.00;;;;;23.76;49.63;101422.72;5020135;28;45399;-65
2022/08/02 03:25:14;;;;;;;;;2.00;2.00;;;;;23.76;49.51;101424.59;5020431;28;45224;-65
2022/08/02 03:27:40;;;;;;;;;1.50;1.50;;;;;23.74;49.58;101429.25;5019769;28;45242;-65
2022/08/02 03:30:08;;;;;;;;;4.00;3.00;;;;;23.72;49.76;101425.78;5020158;28;46353;-65
2022/08/02 03:32:35;;;;;;;;;2.00;2.00;;;;;23.71;49.57;101426.81;5019994;28;45491;-65
2022/08/02 03:35:02;;;;;;;;;1.50;1.50;;;;;23.68;49.60;101420.56;5020338;28;45282;-65
2022/08/02 03:37:29;;;;;;;;;2.00;2.00;;;;;23.69;49.96;101421.47;5019872;28;45344;-65
2022/08/02 03:39:55;;;;;;;;;2.00;1.75;;;;;23.67;49.75;101418.84;5019844;28;45288;-65
2022/08/02 03:42:22;;;;;;;;;2.00;2.00;;;;;23.68;49.61;101422.44;5019596;28;45378;-65
2022/08/02 03:44:48;;;;;;;;;3.50;2.50;;;;;23.67;49.71;101420.69;5020094;28;45450;-65
2022/08/02 03:47:14;;;;;;;;;2.25;2.25;;;;;23.71;49.87;101426.81;5019636;28;45300;-65
2022/08/02 03:49:42;;;;;;;;;2.25;2.00;;;;;23.69;49.30;101424.19;5018854;28;45416;-65
2022/08/02 03:52:07;;;;;;;;;1.25;1.25;;;;;23.71;49.72;101418.63;5019616;28;45538;-65
2022/08/02 03:54:32;;;;;;;;;2.00;1.00;;;;;23.68;49.67;101419.72;5019797;28;45325;-65
2022/08/02 03:56:58;;;;;;;;;2.00;2.00;;;;;23.67;49.46;101417.97;5019389;28;45215;-65
2022/08/02 03:59:23;;;;;;;;;1.25;1.25;;;;;23.62;49.04;101407.44;5019782;28;46004;-65
2022/08/02 04:01:49;;;;;;;;;2.00;2.00;;;;;23.63;49.65;101409.16;5021784;28;45442;-65
2022/08/02 04:04:14;;;;;;;;;3.75;3.75;;;;;23.63;49.81;101408.31;5023446;28;45316;-65
2022/08/02 04:06:39;;;;;;;;;1.25;1.25;;;;;23.62;49.66;101403.81;5023299;28;45322;-65
2022/08/02 04:09:04;;;;;;;;;3.75;3.00;;;;;23.58;49.73;101405.91;5023019;28;49789;-65
2022/08/02 04:11:30;;;;;;;;;2.25;2.25;;;;;23.59;49.55;101409.50;5022950;28;45292;-65
2022/08/02 04:14:04;;;;;;;;;2.00;2.00;;;;;23.54;49.69;101404.44;5023149;28;45385;-65
2022/08/02 04:16:30;;;;;;;;;1.75;1.00;;;;;23.57;49.69;101400.59;5023149;28;45245;-65
2022/08/02 04:19:01;;;;;;;;;1.00;1.00;;;;;23.56;49.58;101409.78;5021532;28;45471;-65
2022/08/02 04:21:31;;;;;;;;;2.00;2.00;;;;;23.54;49.97;101420.78;5022646;28;45499;-65
2022/08/02 04:23:57;;;;;;;;;2.25;2.25;;;;;23.52;49.79;101414.56;5023227;28;45324;-65
2022/08/02 04:26:24;;;;;;;;;2.00;2.00;;;;;23.50;49.97;101408.38;5022758;28;45327;-65
2022/08/02 04:28:50;;;;;;;;;2.00;2.00;;;;;23.46;49.98;101407.75;5022906;28;45753;-65
2022/08/02 04:31:17;;;;;;;;;2.25;2.25;;;;;23.46;50.04;101406.88;5022854;28;45326;-65
2022/08/02 04:33:42;;;;;;;;;4.00;3.00;;;;;23.45;49.94;101410.56;5023082;28;45508;-65
2022/08/02 04:36:09;;;;;;;;;3.00;1.50;;;;;23.44;49.87;101411.59;5022881;28;45393;-65
2022/08/02 04:38:35;;;;;;;;;2.00;2.00;;;;;23.40;49.92;101407.34;5022840;28;47321;-65
2022/08/02 04:41:00;;;;;;;;;2.75;2.75;;;;;23.41;50.28;101414.53;5022791;28;45393;-65
2022/08/02 04:43:26;;;;;;;;;4.00;2.00;;;;;23.40;50.07;101416.38;5022433;28;45384;-65
2022/08/02 04:45:53;;;;;;;;;2.00;2.00;;;;;23.40;50.45;101419.09;5022585;28;45368;-65
2022/08/02 04:48:19;;;;;;;;;3.00;3.00;;;;;23.36;50.21;101419.47;5021500;28;46193;-65
2022/08/02 04:50:45;;;;;;;;;3.00;2.00;;;;;23.34;49.62;101425.03;5020934;28;45419;-65
2022/08/02 04:53:10;;;;;;;;;3.00;3.00;;;;;23.30;50.10;101428.94;5022685;28;45312;-65
2022/08/02 04:55:35;;;;;;;;;3.00;2.00;;;;;23.29;50.23;101424.50;5022374;28;45494;-65
2022/08/02 04:58:01;;;;;;;;;2.00;2.00;;;;;23.26;50.20;101419.28;5022117;28;45356;-65
2022/08/02 05:00:27;;;;;;;;;2.50;2.50;;;;;23.24;50.29;101413.09;5021507;28;45376;-64
2022/08/02 05:02:58;;;;;;;;;2.00;2.00;;;;;23.21;50.54;101414.19;5022418;28;45479;-64
2022/08/02 05:05:23;;;;;;;;;2.00;2.00;;;;;23.19;50.68;101415.25;5022128;28;45360;-65
2022/08/02 05:07:49;;;;;;;;;4.00;4.00;;;;;23.11;50.54;101402.25;5022435;28;46267;-65
2022/08/02 05:10:14;;;;;;;;;2.75;2.75;;;;;23.16;50.45;101415.53;5022336;28;45201;-65
2022/08/02 05:12:40;;;;;;;;;3.25;2.00;;;;;23.11;50.65;101416.72;5021376;28;45396;-64
2022/08/02 05:15:07;;;;;;;;;3.00;3.00;;;;;23.07;50.71;101412.50;5022270;28;45230;-65
2022/08/02 05:17:32;;;;;;;;;2.75;2.00;;;;;23.06;50.93;101418.03;5022058;28;46265;-64
2022/08/02 05:19:57;;;;;;;;;2.50;2.25;;;;;23.06;50.68;101420.75;5021152;28;45166;-65
2022/08/02 05:22:23;;;;;;;;;2.25;2.25;;;;;23.02;50.77;101416.50;5021109;28;45655;-65
2022/08/02 05:24:48;;;;;;;;;2.50;2.50;;;;;23.05;51.18;101414.41;5022051;28;45199;-65
2022/08/02 05:27:13;;;;;;;;;2.50;2.50;;;;;23.03;50.90;101418.25;5021144;28;56227;-65
2022/08/02 05:29:39;;;;;;;;;4.00;4.00;;;;;23.05;50.72;101428.03;5021501;28;45416;-65
2022/08/02 05:32:04;;;;;;;;;2.00;1.75;;;;;23.00;51.10;101421.19;5021323;28;54163;-65
2022/08/02 05:34:30;;;;;;;;;3.50;3.50;;;;;23.02;50.91;101420.13;5021975;28;45638;-65
2022/08/02 05:36:55;;;;;;;;;3.50;3.00;;;;;23.00;51.28;101415.75;5021850;28;45405;-65
2022/08/02 05:39:20;;;;;;;;;2.00;1.75;;;;;23.03;51.12;101431.88;5021804;28;45255;-65
2022/08/02 05:41:46;;;;;;;;;3.00;3.00;;;;;23.07;51.34;101437.00;5021716;28;45427;-64
2022/08/02 05:44:11;;;;;;;;;4.25;3.00;;;;;23.12;51.74;101439.34;5021568;28;45292;-64
2022/08/02 05:46:36;;;;;;;;;4.00;3.00;;;;;23.11;51.31;101433.06;5021059;28;57824;-64
2022/08/02 05:49:03;;;;;;;;;4.25;4.25;;;;;23.13;51.53;101441.13;5019502;28;45374;-64
2022/08/02 05:51:44;;;;;;;;;4.50;4.50;;;;;23.11;51.55;101434.91;5021300;28;45419;-65
2022/08/02 05:54:19;;;;;;;;;3.75;3.75;;;;;23.17;51.38;101433.56;5019277;28;45390;-64
2022/08/02 05:57:06;;;;;;;;;4.75;3.25;;;;;23.19;51.85;101429.78;5021021;28;46066;-64
2022/08/02 05:59:33;;;;;;;;;3.00;3.00;;;;;23.17;51.68;101420.84;5000455;28;45517;-65
2022/08/02 06:02:03;;;;;;;;;4.00;2.75;;;;;23.19;51.38;101427.03;5020757;28;45337;-64
2022/08/02 06:04:55;;;;;;;;;3.00;3.00;;;;;23.20;51.47;101428.78;5020549;28;45325;-65
2022/08/02 06:07:21;;;;;;;;;4.00;4.00;;;;;23.22;51.24;101428.66;5018961;28;45446;-65
2022/08/02 06:09:49;;;;;;;;;4.00;4.00;;;;;23.21;51.10;101433.25;5020593;28;45497;-64
2022/08/02 06:12:16;;;;;;;;;4.00;3.00;;;;;23.21;51.51;101430.53;5020977;28;45400;-65
2022/08/02 06:14:42;;;;;;;;;3.00;3.00;;;;;23.20;51.09;101434.22;5020539;28;45508;-64
2022/08/02 06:17:07;;;;;;;;;4.00;4.00;;;;;23.21;51.30;101429.66;5020602;28;46411;-65
2022/08/02 06:19:35;;;;;;;;;4.50;3.00;;;;;23.18;51.67;101413.53;5020623;28;45386;-64
2022/08/02 06:22:13;;;;;;;;;4.00;2.00;;;;;23.21;51.32;101418.78;5021427;28;45303;-64
2022/08/02 06:24:43;;;;;;;;;5.25;3.50;;;;;23.25;51.06;101417.53;5019858;28;45378;-64
2022/08/02 06:27:11;;;;;;;;;4.00;4.00;;;;;23.23;50.90;101425.81;5020879;28;45362;-64
2022/08/02 06:29:37;;;;;;;;;3.00;3.00;;;;;23.21;50.67;101437.84;5020802;28;45269;-65
2022/08/02 06:32:03;;;;;;;;;4.25;3.25;;;;;23.19;50.93;101427.03;5021222;28;45240;-64
2022/08/02 06:34:28;;;;;;;;;3.00;3.00;;;;;23.21;51.16;101435.97;5020971;28;45211;-65
2022/08/02 06:37:05;;;;;;;;;3.00;3.00;;;;;23.23;51.22;101435.84;5020036;28;48020;-64
2022/08/02 06:39:35;;;;;;;;;4.75;4.25;;;;;23.21;50.60;101440.56;5019263;28;45450;-64
2022/08/02 06:42:11;;;;;;;;;4.00;3.25;;;;;23.11;50.66;101426.75;5019027;28;45310;-64
2022/08/02 06:44:37;;;;;;;;;2.25;2.25;;;;;23.15;50.69;101436.41;5020571;28;45308;-65
2022/08/02 06:47:03;;;;;;;;;3.00;2.25;;;;;23.17;50.97;101447.19;5020575;28;46215;-64
2022/08/02 06:49:28;;;;;;;;;2.00;2.00;;;;;23.18;51.37;101443.50;5017825;28;46082;-64
2022/08/02 06:51:54;;;;;;;;;4.00;4.00;;;;;23.17;51.21;101439.91;5017581;28;45563;-64
2022/08/02 06:54:20;;;;;;;;;4.25;4.25;;;;;23.21;50.94;101455.03;5020401;28;45431;-64
2022/08/02 06:56:46;;;;;;;;;3.75;3.75;;;;;23.25;51.04;101447.50;5019996;28;46157;-64
2022/08/02 06:59:11;;;;;;;;;4.00;4.00;;;;;23.31;50.96;101450.63;5020466;28;45333;-64
2022/08/02 07:01:37;;;;;;;;;4.75;4.00;;;;;23.35;50.71;101444.97;5020407;28;45474;-64
2022/08/02 07:04:03;;;;;;;;;4.00;4.00;;;;;23.41;50.52;101452.69;5018993;28;45307;-64
2022/08/02 07:06:29;;;;;;;;;3.50;3.00;;;;;23.48;50.60;101456.66;5019980;28;46327;-64
2022/08/02 07:08:54;;;;;;;;;3.25;3.00;;;;;23.52;50.44;101452.69;5020243;28;45299;-64
2022/08/02 07:11:19;;;;;;;;;3.00;3.00;;;;;23.55;50.13;101457.94;5020029;28;47720;-64
2022/08/02 07:13:45;;;;;;;;;4.00;4.00;;;;;23.59;50.46;101462.19;5020419;28;45475;-64
2022/08/02 07:16:10;;;;;;;;;4.25;3.25;;;;;23.58;50.04;101456.84;5020146;28;47453;-64
2022/08/02 07:18:36;;;;;;;;;3.50;3.50;;;;;23.65;50.32;101458.97;5020358;28;45159;-64
2022/08/02 07:21:04;;;;;;;;;4.50;3.75;;;;;23.71;49.78;101460.38;5020316;28;45229;-64
2022/08/02 07:23:29;;;;;;;;;1.75;0.00;;;;;23.72;50.19;101450.31;5018804;28;45558;-64
2022/08/02 07:25:54;;;;;;;;;3.00;3.00;;;;;23.73;49.79;101457.53;5018673;28;46084;-64
2022/08/02 07:28:20;;;;;;;;;5.00;4.50;;;;;23.71;50.17;101452.19;5019417;28;45303;-64
2022/08/02 07:30:45;;;;;;;;;6.50;4.50;;;;;23.73;50.13;101458.38;5018687;28;45432;-64
2022/08/02 07:33:11;;;;;;;;;4.00;4.00;;;;;23.74;50.09;101459.25;5019927;28;45504;-64
2022/08/02 07:35:36;;;;;;;;;2.50;2.50;;;;;23.80;49.92;101464.22;5017815;28;49586;-64
2022/08/02 07:38:02;;;;;;;;;6.25;4.50;;;;;23.81;49.64;101463.25;5019892;28;45229;-64
2022/08/02 07:40:27;;;;;;;;;5.75;3.00;;;;;23.87;49.57;101465.53;5020120;28;45316;-64
2022/08/02 07:42:54;;;;;;;;;5.00;5.00;;;;;23.92;50.11;101468.75;5018195;28;45351;-64
2022/08/02 07:45:21;;;;;;;;;4.50;4.00;;;;;23.93;49.33;101467.78;5018974;28;45427;-64
2022/08/02 07:47:47;;;;;;;;;2.00;2.00;;;;;23.96;49.58;101463.97;5019962;28;45228;-64
2022/08/02 07:50:15;;;;;;;;;4.50;4.50;;;;;23.99;50.21;101469.16;5019866;28;45388;-65
2022/08/02 07:52:41;;;;;;;;;7.00;5.00;;;;;23.98;49.81;101462.84;5014194;28;45460;-65
2022/08/02 07:55:07;;;;;;;;;4.50;4.50;;;;;23.99;49.45;101467.31;5018448;28;45337;-65
2022/08/02 07:57:33;;;;;;;;;5.00;4.00;;;;;24.02;49.67;101458.00;5019335;28;45565;-64
2022/08/02 07:59:58;;;;;;;;;5.25;4.00;;;;;24.07;49.99;101458.53;5019824;28;45333;-64
2022/08/02 08:02:24;;;;;;;;;3.25;3.25;;;;;24.10;49.73;101454.69;5019585;28;45573;-64
2022/08/02 08:04:49;;;;;;;;;5.25;4.25;;;;;24.16;50.36;101465.13;5019607;28;45312;-64
2022/08/02 08:07:15;;;;;;;;;5.75;4.00;;;;;24.20;49.55;101458.44;5019808;28;45230;-64
2022/08/02 08:09:40;;;;;;;;;5.00;5.00;;;;;24.23;49.98;101447.28;5019715;28;45287;-64
2022/08/02 08:12:10;;;;;;;;;3.25;3.25;;;;;24.29;49.68;101446.81;5019318;28;45162;-64
2022/08/02 08:14:37;;;;;;;;;8.25;6.00;;;;;24.32;49.24;101449.25;5018344;28;46275;-64
2022/08/02 08:17:02;;;;;;;;;6.00;5.00;;;;;24.34;49.40;101447.31;5019584;28;45404;-64
2022/08/02 08:19:28;;;;;;;;;5.50;5.50;;;;;24.36;49.30;101450.78;5019542;28;45379;-64
2022/08/02 08:21:53;;;;;;;;;5.00;5.00;;;;;24.45;49.43;101449.16;5019442;28;45618;-64
2022/08/02 08:24:18;;;;;;;;;6.50;5.25;;;;;24.48;49.16;101446.19;5019352;28;46738;-65
2022/08/02 08:26:44;;;;;;;;;3.75;3.75;;;;;24.54;48.88;101442.09;5017788;28;45343;-64
2022/08/02 08:29:09;;;;;;;;;5.25;4.75;;;;;24.58;48.86;101443.63;5019426;28;45249;-65
2022/08/02 08:31:34;;;;;;;;;5.00;5.00;;;;;24.60;48.62;101453.41;5018884;28;48193;-65
2022/08/02 08:34:00;;;;;;;;;6.25;4.75;;;;;24.59;48.20;101450.81;5018916;28;46128;-65
2022/08/02 08:36:26;;;;;;;;;6.00;5.00;;;;;24.61;48.62;101454.31;5018749;28;45595;-65
2022/08/02 08:38:51;;;;;;;;;6.75;5.25;;;;;24.61;48.55;101448.84;5018926;28;45332;-65
2022/08/02 08:41:17;;;;;;;;;6.25;6.00;;;;;24.65;48.85;101449.47;5019218;28;45551;-65
2022/08/02 08:43:43;;;;;;;;;5.50;5.00;;;;;24.67;49.70;101442.88;5017422;28;45333;-65
2022/08/02 08:46:11;;;;;;;;;7.00;6.00;;;;;24.75;49.40;101443.13;5017140;28;46840;-65
2022/08/02 08:48:42;;;;;;;;;6.50;6.25;;;;;24.82;48.33;101451.69;5021115;28;45446;-65
2022/08/02 08:51:11;;;;;;;;;9.00;7.00;;;;;24.87;47.95;101443.13;5022647;28;45270;-65
2022/08/02 08:53:42;;;;;;;;;5.00;5.00;;;;;24.92;48.37;101446.34;5021853;28;45532;-65
2022/08/02 08:56:10;;;;;;;;;9.75;6.25;;;;;24.95;47.99;101449.69;5020028;28;45518;-65
2022/08/02 08:58:37;;;;;;;;;7.00;7.00;;;;;24.97;48.45;101444.09;5021605;28;45347;-65
2022/08/02 09:01:03;;;;;;;;;9.50;6.25;;;;;25.02;48.86;101444.56;5022431;28;45425;-65
2022/08/02 09:03:28;;;;;;;;;7.25;6.50;;;;;25.06;49.13;101440.63;5022207;28;45388;-65
2022/08/02 09:05:56;;;;;;;;;7.50;6.75;;;;;25.10;48.90;101433.88;5019071;28;45250;-65
2022/08/02 09:08:22;;;;;;;;;5.75;5.75;;;;;25.12;47.83;101442.81;5022235;28;45233;-65
2022/08/02 09:10:48;;;;;;;;;9.00;5.50;;;;;25.10;47.91;101439.34;5022126;28;45530;-65
2022/08/02 09:13:23;;;;;;;;;5.25;5.25;;;;;25.15;48.34;101441.72;5020442;28;46996;-65
2022/08/02 09:15:54;;;;;;;;;8.25;6.00;;;;;25.16;48.12;101440.72;5021838;28;45270;-65
2022/08/02 09:18:28;;;;;;;;;5.75;5.25;;;;;25.19;48.07;101442.31;5022036;28;45189;-65
2022/08/02 09:20:58;;;;;;;;;8.00;5.75;;;;;25.23;47.93;101441.06;5022006;28;45386;-65
2022/08/02 09:23:25;;;;;;;;;6.50;6.00;;;;;25.26;48.21;101433.53;5021975;28;46688;-65
2022/08/02 09:25:56;;;;;;;;;5.75;4.75;;;;;25.32;48.66;101440.31;5020253;28;45343;-65
2022/08/02 09:28:26;;;;;;;;;5.25;4.50;;;;;25.33;48.23;101426.53;5020894;28;45495;-65
2022/08/02 09:30:51;;;;;;;;;5.75;5.75;;;;;25.41;48.42;101427.75;5021906;28;45317;-65
2022/08/02 09:33:27;;;;;;;;;5.00;4.50;;;;;25.44;47.74;101428.38;5021654;28;46112;-65
2022/08/02 09:36:02;;;;;;;;;7.50;7.00;;;;;25.50;48.58;101433.31;5021687;28;45265;-65
2022/08/02 09:38:28;;;;;;;;;5.25;5.25;;;;;25.55;48.09;101432.91;5021788;28;45325;-65
2022/08/02 09:40:54;;;;;;;;;5.25;5.25;;;;;25.61;47.79;101431.50;5021492;28;45331;-65
2022/08/02 09:43:19;;;;;;;;;6.00;6.00;;;;;25.64;47.72;101426.69;5021272;28;46445;-65
2022/08/02 09:45:45;;;;;;;;;6.25;6.25;;;;;25.67;47.74;101425.53;5021387;28;45269;-65
2022/08/02 09:48:11;;;;;;;;;6.75;6.75;;;;;25.65;47.00;101414.72;5021816;28;45455;-65
2022/08/02 09:50:38;;;;;;;;;4.25;4.25;;;;;25.73;47.77;101419.53;5021114;28;46105;-65
2022/08/02 09:53:04;;;;;;;;;6.00;6.00;;;;;25.78;47.41;101419.16;5021328;28;46865;-65
2022/08/02 09:55:30;;;;;;;;;5.00;5.00;;;;;25.82;47.50;101418.72;5020457;28;45291;-65
2022/08/02 09:57:55;;;;;;;;;7.75;6.00;;;;;25.82;47.19;101415.16;5021103;28;45584;-65
2022/08/02 10:00:21;;;;;;;;;6.00;5.00;;;;;25.86;47.12;101420.22;5021074;28;45474;-65
2022/08/02 10:03:06;;;;;;;;;5.00;5.00;;;;;25.91;47.74;101418.94;5021323;28;45438;-65
2022/08/02 10:05:52;;;;;;;;;5.00;5.00;;;;;25.96;46.94;101413.97;5009638;28;45336;-65
2022/08/02 10:08:19;;;;;;;;;3.75;3.50;;;;;26.01;47.55;101417.16;5021319;28;45446;-65
2022/08/02 10:10:44;;;;;;;;;5.25;5.00;;;;;26.03;46.60;101399.63;5021138;28;45529;-65
2022/08/02 10:13:10;;;;;;;;;2.75;2.75;;;;;26.09;46.71;101409.16;5020786;28;46085;-65
2022/08/02 10:15:39;;;;;;;;;10.75;10.75;;;;;26.10;46.30;101405.44;5021117;28;45269;-65
2022/08/02 10:18:06;;;;;;;;;5.00;5.00;;;;;26.13;46.43;101399.69;5021138;28;45437;-65
2022/08/02 10:20:39;;;;;;;;;4.25;4.25;;;;;26.13;46.14;101396.06;5021119;28;45549;-65
2022/08/02 10:23:09;;;;;;;;;6.25;5.25;;;;;26.19;46.46;101401.88;5020912;28;46411;-65
2022/08/02 10:25:37;;;;;;;;;5.00;5.00;;;;;26.20;45.72;101389.06;5019626;28;45479;-65
2022/08/02 10:28:06;;;;;;;;;5.50;4.25;;;;;26.23;46.29;101397.88;5020469;28;45240;-65
2022/08/02 10:30:35;;;;;;;;;3.25;3.00;;;;;26.27;46.54;101400.34;5020980;28;45328;-65
2022/08/02 10:33:03;;;;;;;;;7.00;5.50;;;;;26.35;46.57;101408.75;5020845;28;46149;-68
2022/08/02 10:35:36;;;;;;;;;4.50;4.50;;;;;26.41;46.63;101394.47;5020752;28;45328;-67
2022/08/02 10:38:06;;;;;;;;;5.00;5.00;;;;;26.47;45.91;101391.22;5019583;28;45214;-67
2022/08/02 10:40:52;;;;;;;;;5.00;5.00;;;;;26.54;45.72;101389.63;5020821;28;45315;-67
2022/08/02 10:43:30;;;;;;;;;6.00;4.50;;;;;26.62;45.67;101397.19;5020754;28;45467;-67
2022/08/02 10:46:32;;;;;;;;;4.25;4.25;;;;;26.69;44.54;101401.13;5020957;28;45273;-67
2022/08/02 10:49:10;;;;;;;;;3.25;3.25;;;;;26.72;45.07;101386.28;5020992;28;45399;-67
2022/08/02 10:51:50;;;;;;;;;3.25;3.25;;;;;26.74;44.66;101395.22;5020785;28;45375;-67
2022/08/02 10:54:36;;;;;;;;;3.00;3.00;;;;;26.74;44.80;101389.75;5019563;28;46387;-67
2022/08/02 10:57:12;;;;;;;;;4.00;4.00;;;;;26.77;45.07;101393.06;5020163;28;45382;-68
2022/08/02 10:59:37;;;;;;;;;3.50;3.50;;;;;26.81;44.71;101382.69;5020919;28;45466;-67
2022/08/02 11:02:04;;;;;;;;;3.25;2.00;;;;;26.85;44.86;101389.66;5020590;28;45295;-67
2022/08/02 11:04:40;;;;;;;;;4.00;4.00;;;;;26.87;44.85;101379.41;5020660;28;47544;-67
2022/08/02 11:07:13;;;;;;;;;5.25;4.00;;;;;26.92;44.65;101374.38;5020982;28;45332;-67
2022/08/02 11:09:48;;;;;;;;;4.50;4.00;;;;;26.97;44.25;101368.47;5020627;28;45351;-67
2022/08/02 11:12:17;;;;;;;;;5.00;4.50;;;;;26.98;43.96;101370.19;5019762;28;45351;-67
2022/08/02 11:14:56;;;;;;;;;3.25;3.25;;;;;27.00;43.69;101370.94;5020074;28;45264;-67
2022/08/02 11:17:22;;;;;;;;;4.00;4.00;;;;;27.03;43.44;101370.66;5020416;28;45253;-67
2022/08/02 11:20:13;;;;;;;;;3.25;3.25;;;;;27.07;43.91;101369.34;5020302;28;46532;-67
2022/08/02 11:22:39;;;;;;;;;5.25;5.00;;;;;27.09;43.49;101380.16;5020320;28;45491;-67
2022/08/02 11:25:23;;;;;;;;;3.50;3.50;;;;;27.13;44.25;101367.91;5019435;28;45396;-68
2022/08/02 11:28:07;;;;;;;;;3.75;3.75;;;;;27.17;43.67;101366.63;5018240;28;45542;-68
2022/08/02 11:30:33;;;;;;;;;7.25;5.50;;;;;27.20;43.47;101355.38;5020353;28;45229;-68
2022/08/02 11:32:59;;;;;;;;;4.00;4.00;;;;;27.24;43.65;101355.97;5020129;28;45310;-68
2022/08/02 11:35:36;;;;;;;;;2.25;2.25;;;;;27.28;43.09;101354.63;5019200;28;45529;-68